createdAt,value
2018-02-22T00:01:18.589Z,21.42
2018-02-22T00:03:46.141Z,24.42
2018-02-22T00:06:13.681Z,23.83
2018-02-22T00:08:41.362Z,24.45
2018-02-22T00:11:09.120Z,22.27
2018-02-22T00:13:36.630Z,25.70
2018-02-22T00:16:04.162Z,24.60
2018-02-22T00:18:31.710Z,26.33
2018-02-22T00:20:59.257Z,25.05
2018-02-22T00:23:26.766Z,26.08
2018-02-22T00:25:54.300Z,26.17
2018-02-22T00:28:21.845Z,24.80
2018-02-22T00:30:49.367Z,26.83
2018-02-22T00:33:16.935Z,25.92
2018-02-22T00:35:44.453Z,22.25
2018-02-22T00:38:11.973Z,22.80
2018-02-22T00:40:39.534Z,23.77
2018-02-22T00:43:07.061Z,19.10
2018-02-22T00:45:34.978Z,25.45
2018-02-22T00:48:02.502Z,22.95
2018-02-22T00:50:30.058Z,23.62
2018-02-22T00:52:57.617Z,24.12
2018-02-22T00:55:25.142Z,24.60
2018-02-22T00:57:52.965Z,25.77
2018-02-22T01:00:20.489Z,23.27
2018-02-22T01:02:48.026Z,21.90
2018-02-22T01:05:15.589Z,25.85
2018-02-22T01:07:43.114Z,23.33
2018-02-22T01:10:10.666Z,26.42
2018-02-22T01:12:38.185Z,25.25
2018-02-22T01:15:05.911Z,25.48
2018-02-22T01:17:33.483Z,22.98
2018-02-22T01:20:01.020Z,23.50
2018-02-22T01:22:28.757Z,22.40
2018-02-22T01:24:56.269Z,25.75
2018-02-22T01:27:23.794Z,21.12
2018-02-22T01:29:51.361Z,20.60
2018-02-22T01:32:18.885Z,22.87
2018-02-22T01:34:46.560Z,19.62
2018-02-22T01:37:14.106Z,18.75
2018-02-22T01:39:41.648Z,24.30
2018-02-22T01:42:09.197Z,22.62
2018-02-22T01:44:36.729Z,22.65
2018-02-22T01:47:04.281Z,23.52
2018-02-22T01:49:31.806Z,23.38
2018-02-22T01:51:59.337Z,19.00
2018-02-22T01:54:26.893Z,25.58
2018-02-22T01:56:54.420Z,21.17
2018-02-22T01:59:21.979Z,21.77
2018-02-22T02:01:49.514Z,21.75
2018-02-22T02:04:17.042Z,23.58
2018-02-22T02:06:44.597Z,22.45
2018-02-22T02:09:12.118Z,21.45
2018-02-22T02:11:39.691Z,22.27
2018-02-22T02:14:07.214Z,21.83
2018-02-22T02:16:34.740Z,21.62
2018-02-22T02:19:02.313Z,22.13
2018-02-22T02:21:29.841Z,23.50
2018-02-22T02:23:57.642Z,22.65
2018-02-22T02:26:25.157Z,22.52
2018-02-22T02:28:52.673Z,26.98
2018-02-22T02:31:20.225Z,24.90
2018-02-22T02:33:47.754Z,25.10
2018-02-22T02:36:15.990Z,23.45
2018-02-22T02:38:43.522Z,24.70
2018-02-22T02:41:11.046Z,24.70
2018-02-22T02:43:38.603Z,25.55
2018-02-22T02:46:06.136Z,21.92
2018-02-22T02:48:33.711Z,22.90
2018-02-22T02:51:01.262Z,22.00
2018-02-22T02:53:29.701Z,23.45
2018-02-22T02:55:57.255Z,22.55
2018-02-22T02:58:24.790Z,23.40
2018-02-22T03:00:52.663Z,22.30
2018-02-22T03:03:20.187Z,20.40
2018-02-22T03:05:47.743Z,20.60
2018-02-22T03:08:15.302Z,22.73
2018-02-22T03:10:42.818Z,18.45
2018-02-22T03:13:10.398Z,22.75
2018-02-22T03:15:37.913Z,22.35
2018-02-22T03:18:05.426Z,20.98
2018-02-22T03:20:32.982Z,20.37
2018-02-22T03:23:00.502Z,20.30
2018-02-22T03:25:28.257Z,25.92
2018-02-22T03:27:55.773Z,19.87
2018-02-22T03:30:23.311Z,20.92
2018-02-22T03:32:50.862Z,24.37
2018-02-22T03:35:18.415Z,22.45
2018-02-22T03:37:46.258Z,21.80
2018-02-22T03:40:14.249Z,21.15
2018-02-22T03:42:41.763Z,22.33
2018-02-22T03:45:09.319Z,19.58
2018-02-22T03:47:36.853Z,20.15
2018-02-22T03:50:04.420Z,21.80
2018-02-22T03:52:31.946Z,19.90
2018-02-22T03:54:59.483Z,19.60
2018-02-22T03:57:27.043Z,21.20
2018-02-22T03:59:54.566Z,20.40
2018-02-22T04:02:22.117Z,19.58
2018-02-22T04:04:49.633Z,18.75
2018-02-22T04:07:17.154Z,19.83
2018-02-22T04:09:44.697Z,18.70
2018-02-22T04:12:12.214Z,18.42
2018-02-22T04:14:39.873Z,19.83
2018-02-22T04:17:07.409Z,19.48
2018-02-22T04:19:34.934Z,19.30
2018-02-22T04:22:02.483Z,17.75
2018-02-22T04:24:30.332Z,16.55
2018-02-22T04:26:57.897Z,16.65
2018-02-22T04:29:25.441Z,16.52
2018-02-22T04:31:52.963Z,17.87
2018-02-22T04:34:20.510Z,17.35
2018-02-22T04:36:48.033Z,17.27
2018-02-22T04:39:15.592Z,16.90
2018-02-22T04:41:43.113Z,19.12
2018-02-22T04:44:10.635Z,17.55
2018-02-22T04:46:38.188Z,17.12
2018-02-22T04:49:05.714Z,12.88
2018-02-22T04:51:33.266Z,11.63
2018-02-22T04:54:00.797Z,15.40
2018-02-22T04:56:28.322Z,16.98
2018-02-22T04:58:56.766Z,15.68
2018-02-22T05:01:24.293Z,16.52
2018-02-22T05:03:52.391Z,9.23
2018-02-22T05:06:19.908Z,12.43
2018-02-22T05:08:47.469Z,16.75
2018-02-22T05:11:15.256Z,19.05
2018-02-22T05:13:42.778Z,15.07
2018-02-22T05:16:10.473Z,18.20
2018-02-22T05:18:38.000Z,18.92
2018-02-22T05:21:05.523Z,17.33
2018-02-22T05:23:33.082Z,14.55
2018-02-22T05:26:01.012Z,17.17
2018-02-22T05:28:29.623Z,17.90
2018-02-22T05:30:57.161Z,18.23
2018-02-22T05:33:24.686Z,16.85
2018-02-22T05:35:52.235Z,17.10
2018-02-22T05:38:19.749Z,16.30
2018-02-22T05:40:47.500Z,17.05
2018-02-22T05:43:15.041Z,14.43
2018-02-22T05:45:42.744Z,18.23
2018-02-22T05:48:10.296Z,17.10
2018-02-22T05:50:37.818Z,17.10
2018-02-22T05:53:05.601Z,16.90
2018-02-22T05:55:33.118Z,16.25
2018-02-22T05:58:00.641Z,10.57
2018-02-22T06:00:28.205Z,13.02
2018-02-22T06:02:55.745Z,17.90
2018-02-22T06:05:23.406Z,16.27
2018-02-22T06:07:50.932Z,16.30
2018-02-22T06:10:18.455Z,16.80
2018-02-22T06:12:46.010Z,15.90
2018-02-22T06:15:13.600Z,18.33
2018-02-22T06:17:41.213Z,20.15
2018-02-22T06:20:08.738Z,15.55
2018-02-22T06:22:36.259Z,18.10
2018-02-22T06:25:03.814Z,13.15
2018-02-22T06:27:31.348Z,14.85
2018-02-22T06:29:59.202Z,18.85
2018-02-22T06:32:26.718Z,16.45
2018-02-22T06:34:54.253Z,15.63
2018-02-22T06:37:21.838Z,15.55
2018-02-22T06:39:49.350Z,18.00
2018-02-22T06:42:17.200Z,17.30
2018-02-22T06:44:44.728Z,16.75
2018-02-22T06:47:12.252Z,13.88
2018-02-22T06:49:39.802Z,14.27
2018-02-22T06:52:07.322Z,17.75
2018-02-22T06:54:35.203Z,16.77
2018-02-22T06:57:02.727Z,18.20
2018-02-22T06:59:30.248Z,16.95
2018-02-22T07:01:57.814Z,17.25
2018-02-22T07:04:25.333Z,13.48
2018-02-22T07:06:53.029Z,19.08
2018-02-22T07:09:20.554Z,16.65
2018-02-22T07:11:48.078Z,18.73
2018-02-22T07:14:15.643Z,15.27
2018-02-22T07:16:43.167Z,19.60
2018-02-22T07:19:10.818Z,20.02
2018-02-22T07:21:38.382Z,15.93
2018-02-22T07:24:05.901Z,14.23
2018-02-22T07:26:33.450Z,18.45
2018-02-22T07:29:00.971Z,15.85
2018-02-22T07:31:28.519Z,18.33
2018-02-22T07:33:56.041Z,22.30
2018-02-22T07:36:23.567Z,22.80
2018-02-22T07:38:51.120Z,14.77
2018-02-22T07:41:18.639Z,22.08
2018-02-22T07:43:46.386Z,22.42
2018-02-22T07:46:13.906Z,21.83
2018-02-22T07:48:41.434Z,20.42
2018-02-22T07:51:09.870Z,19.48
2018-02-22T07:53:37.426Z,19.02
2018-02-22T07:56:05.194Z,20.65
2018-02-22T07:58:32.732Z,24.37
2018-02-22T08:01:00.255Z,18.70
2018-02-22T08:03:27.818Z,20.40
2018-02-22T08:05:55.343Z,22.62
2018-02-22T08:08:23.004Z,18.58
2018-02-22T08:10:50.528Z,22.27
2018-02-22T08:13:18.041Z,18.58
2018-02-22T08:15:45.607Z,20.30
2018-02-22T08:18:13.126Z,19.70
2018-02-22T08:20:40.682Z,19.42
2018-02-22T08:23:08.253Z,20.52
2018-02-22T08:25:35.749Z,15.35
2018-02-22T08:28:03.299Z,19.83
2018-02-22T08:30:30.826Z,21.90
2018-02-22T08:32:58.494Z,22.05
2018-02-22T08:35:26.014Z,19.25
2018-02-22T08:37:57.301Z,21.60
2018-02-22T08:40:24.846Z,21.60
2018-02-22T08:42:52.378Z,20.35
2018-02-22T08:45:20.187Z,23.02
2018-02-22T08:47:47.707Z,21.83
2018-02-22T08:50:15.230Z,20.60
2018-02-22T08:52:42.778Z,20.58
2018-02-22T08:55:10.300Z,19.95
2018-02-22T08:57:37.867Z,22.37
2018-02-22T09:00:05.390Z,22.58
2018-02-22T09:02:32.911Z,19.23
2018-02-22T09:05:00.486Z,14.18
2018-02-22T09:07:28.023Z,21.00
2018-02-22T09:09:55.579Z,20.58
2018-02-22T09:12:23.115Z,17.35
2018-02-22T09:14:50.638Z,21.65
2018-02-22T09:17:18.184Z,18.42
2018-02-22T09:19:45.719Z,17.10
2018-02-22T09:22:13.271Z,16.67
2018-02-22T09:24:40.794Z,17.77
2018-02-22T09:27:08.319Z,17.12
2018-02-22T09:29:35.865Z,19.55
2018-02-22T09:32:03.386Z,20.73
2018-02-22T09:34:31.262Z,18.62
2018-02-22T09:36:58.781Z,18.67
2018-02-22T09:39:26.305Z,19.98
2018-02-22T09:41:53.850Z,20.88
2018-02-22T09:44:21.370Z,15.30
2018-02-22T09:46:48.936Z,18.48
2018-02-22T09:49:16.463Z,15.52
2018-02-22T09:51:43.981Z,16.37
2018-02-22T09:54:11.518Z,18.40
2018-02-22T09:56:39.043Z,15.68
2018-02-22T09:59:06.826Z,16.42
2018-02-22T10:01:34.435Z,18.25
2018-02-22T10:04:01.955Z,18.25
2018-02-22T10:06:29.536Z,18.58
2018-02-22T10:08:57.049Z,14.40
2018-02-22T10:11:24.756Z,15.52
2018-02-22T10:13:52.297Z,18.05
2018-02-22T10:16:20.102Z,12.68
2018-02-22T10:18:47.692Z,14.23
2018-02-22T10:21:15.202Z,17.10
2018-02-22T10:23:42.866Z,17.75
2018-02-22T10:26:10.393Z,15.43
2018-02-22T10:28:37.953Z,14.38
2018-02-22T10:31:05.542Z,16.50
2018-02-22T10:33:33.062Z,13.05
2018-02-22T10:36:00.630Z,16.27
2018-02-22T10:38:28.151Z,16.92
2018-02-22T10:40:55.673Z,16.58
2018-02-22T10:43:23.217Z,17.58
2018-02-22T10:45:51.014Z,18.75
2018-02-22T10:48:18.982Z,16.35
2018-02-22T10:50:46.587Z,18.02
2018-02-22T10:53:14.309Z,16.65
2018-02-22T10:55:41.871Z,14.90
2018-02-22T10:58:09.387Z,16.42
2018-02-22T11:00:42.505Z,16.33
2018-02-22T11:03:10.049Z,15.10
2018-02-22T11:05:37.598Z,13.77
2018-02-22T11:08:05.612Z,18.17
2018-02-22T11:10:33.369Z,15.60
2018-02-22T11:13:00.918Z,17.17
2018-02-22T11:15:28.459Z,17.08
2018-02-22T11:17:55.982Z,16.65
2018-02-22T11:20:23.534Z,15.27
2018-02-22T11:22:51.054Z,17.75
2018-02-22T11:25:18.821Z,16.15
2018-02-22T11:27:46.484Z,17.50
2018-02-22T11:30:14.010Z,14.50
2018-02-22T11:32:41.662Z,16.05
2018-02-22T11:35:09.369Z,15.57
2018-02-22T11:37:37.541Z,15.35
2018-02-22T11:40:05.062Z,18.02
2018-02-22T11:42:32.710Z,14.70
2018-02-22T11:45:00.261Z,15.77
2018-02-22T11:47:27.778Z,13.38
2018-02-22T11:49:55.734Z,16.35
2018-02-22T11:52:23.305Z,16.92
2018-02-22T11:54:50.826Z,18.27
2018-02-22T11:57:18.375Z,17.60
2018-02-22T11:59:45.895Z,15.60
2018-02-22T12:02:13.469Z,16.60
2018-02-22T12:04:40.990Z,17.05
2018-02-22T12:07:08.510Z,17.83
2018-02-22T12:09:36.063Z,17.58
2018-02-22T12:12:03.574Z,15.25
2018-02-22T12:14:31.128Z,16.62
2018-02-22T12:16:58.652Z,16.95
2018-02-22T12:19:26.252Z,12.07
2018-02-22T12:21:53.895Z,15.48
2018-02-22T12:24:22.486Z,14.15
2018-02-22T12:26:50.030Z,13.62
2018-02-22T12:29:17.627Z,12.70
2018-02-22T12:31:45.145Z,11.73
2018-02-22T12:34:13.558Z,14.63
2018-02-22T12:36:41.073Z,14.18
2018-02-22T12:39:08.784Z,15.10
2018-02-22T12:41:36.429Z,14.80
2018-02-22T12:44:04.201Z,13.70
2018-02-22T12:46:31.754Z,13.68
2018-02-22T12:48:59.400Z,12.90
2018-02-22T12:51:27.173Z,16.77
2018-02-22T12:53:54.716Z,15.30
2018-02-22T12:56:22.296Z,15.25
2018-02-22T12:58:49.966Z,14.55
2018-02-22T13:01:17.549Z,14.85
2018-02-22T13:03:45.393Z,10.65
2018-02-22T13:06:13.156Z,13.85
2018-02-22T13:08:40.733Z,10.13
2018-02-22T13:11:08.377Z,13.32
2018-02-22T13:13:35.909Z,11.18
2018-02-22T13:16:03.445Z,12.88
2018-02-22T13:18:30.979Z,10.40
2018-02-22T13:20:58.582Z,12.77
2018-02-22T13:23:26.146Z,11.63
2018-02-22T13:25:53.661Z,12.15
2018-02-22T13:28:21.254Z,13.43
2018-02-22T13:30:48.926Z,10.95
2018-02-22T13:33:28.400Z,9.15
2018-02-22T13:35:56.277Z,10.27
2018-02-22T13:38:35.671Z,9.00
2018-02-22T13:41:03.268Z,9.90
2018-02-22T13:43:30.805Z,8.90
2018-02-22T13:45:58.342Z,8.20
2018-02-22T13:51:28.206Z,9.07
2018-02-22T13:53:55.758Z,7.72
2018-02-22T13:56:35.306Z,8.10
2018-02-22T13:59:02.905Z,7.45
2018-02-22T14:04:38.376Z,10.25
2018-02-22T14:07:06.195Z,11.32
2018-02-22T14:09:34.063Z,10.27
2018-02-22T14:12:01.934Z,8.20
2018-02-22T14:14:29.603Z,8.65
2018-02-22T14:16:57.456Z,8.35
2018-02-22T14:19:25.181Z,9.45
2018-02-22T14:21:52.883Z,9.48
2018-02-22T14:24:20.633Z,10.88
2018-02-22T14:26:48.241Z,9.95
2018-02-22T14:29:15.755Z,9.93
2018-02-22T14:31:43.353Z,10.50
2018-02-22T14:34:11.909Z,9.48
2018-02-22T14:36:39.661Z,9.45
2018-02-22T14:39:07.210Z,8.38
2018-02-22T14:41:34.742Z,8.90
2018-02-22T14:44:02.397Z,9.60
2018-02-22T14:46:30.106Z,10.18
2018-02-22T14:48:58.073Z,12.52
2018-02-22T14:51:25.848Z,8.82
2018-02-22T14:53:53.816Z,11.48
2018-02-22T14:56:21.488Z,9.68
2018-02-22T14:58:49.136Z,9.90
2018-02-22T15:01:17.006Z,10.57
2018-02-22T15:03:44.755Z,7.55
2018-02-22T15:06:12.831Z,9.80
2018-02-22T15:08:40.714Z,9.70
2018-02-22T15:11:08.585Z,10.30
2018-02-22T15:13:36.544Z,11.32
2018-02-22T15:16:04.412Z,10.35
2018-02-22T15:18:32.280Z,7.85
2018-02-22T15:21:00.042Z,10.30
2018-02-22T15:23:27.911Z,9.73
2018-02-22T15:25:55.876Z,10.40
2018-02-22T15:28:23.885Z,9.50
2018-02-22T15:30:52.327Z,9.70
2018-02-22T15:33:20.092Z,10.95
2018-02-22T15:35:47.958Z,10.18
2018-02-22T15:38:15.928Z,11.48
2018-02-22T15:40:43.894Z,10.70
2018-02-22T15:43:12.274Z,7.15
2018-02-22T15:45:40.195Z,10.30
2018-02-22T15:48:08.008Z,9.70
2018-02-22T15:50:36.046Z,11.82
2018-02-22T15:53:03.901Z,7.75
2018-02-22T15:55:32.017Z,8.00
2018-02-22T15:57:59.881Z,10.15
2018-02-22T16:00:27.748Z,10.73
2018-02-22T16:02:55.406Z,9.75
2018-02-22T16:05:23.057Z,10.18
2018-02-22T16:07:50.738Z,10.60
2018-02-22T16:10:18.599Z,7.15
2018-02-22T16:12:46.978Z,11.40
2018-02-22T16:15:15.051Z,8.10
2018-02-22T16:17:42.816Z,9.73
2018-02-22T16:20:10.680Z,10.73
2018-02-22T16:22:38.547Z,7.85
2018-02-22T16:25:07.335Z,9.65
2018-02-22T16:27:35.321Z,11.68
2018-02-22T16:30:03.171Z,11.57
2018-02-22T16:32:31.948Z,10.70
2018-02-22T16:34:59.879Z,11.15
2018-02-22T16:37:27.570Z,13.10
2018-02-22T16:39:55.700Z,11.18
2018-02-22T16:42:24.243Z,10.43
2018-02-22T16:44:52.212Z,8.65
2018-02-22T16:47:25.495Z,11.05
2018-02-22T16:49:53.476Z,10.10
2018-02-22T16:52:21.445Z,8.55
2018-02-22T16:54:49.310Z,10.07
2018-02-22T16:57:17.386Z,9.10
2018-02-22T16:59:45.151Z,12.57
2018-02-22T17:02:13.319Z,12.37
2018-02-22T17:04:41.391Z,10.43
2018-02-22T17:07:09.777Z,10.00
2018-02-22T17:09:37.912Z,9.65
2018-02-22T17:12:06.094Z,10.00
2018-02-22T17:14:34.393Z,9.20
2018-02-22T17:17:03.082Z,10.02
2018-02-22T17:19:31.048Z,9.18
2018-02-22T17:21:59.016Z,9.70
2018-02-22T17:24:26.883Z,10.23
2018-02-22T17:27:00.403Z,10.57
2018-02-22T17:29:33.778Z,10.38
2018-02-22T17:32:07.173Z,9.80
2018-02-22T17:34:35.042Z,10.57
2018-02-22T17:37:12.944Z,8.68
2018-02-22T17:42:48.585Z,8.35
2018-02-22T17:45:16.583Z,11.75
2018-02-22T17:47:44.568Z,9.35
2018-02-22T17:50:12.522Z,11.85
2018-02-22T17:52:40.488Z,17.25
2018-02-22T17:55:09.277Z,13.85
2018-02-22T17:57:37.247Z,7.85
2018-02-22T18:00:05.110Z,8.35
2018-02-22T18:02:34.195Z,10.38
2018-02-22T18:05:02.035Z,12.15
2018-02-22T18:07:30.058Z,15.15
2018-02-22T18:09:58.013Z,10.50
2018-02-22T18:12:26.288Z,11.07
2018-02-22T18:14:54.256Z,11.02
2018-02-22T18:17:22.153Z,9.43
2018-02-22T18:19:50.120Z,9.77
2018-02-22T18:22:18.168Z,9.80
2018-02-22T18:24:46.544Z,8.43
2018-02-22T18:27:14.738Z,9.82
2018-02-22T18:29:44.056Z,9.90
2018-02-22T18:32:13.114Z,9.52
2018-02-22T18:34:40.934Z,9.63
2018-02-22T18:37:14.646Z,9.20
2018-02-22T18:39:42.690Z,8.82
2018-02-22T18:42:16.268Z,9.18
2018-02-22T18:44:49.771Z,10.43
2018-02-22T18:47:18.641Z,8.55
2018-02-22T18:49:46.607Z,11.15
2018-02-22T18:52:14.474Z,7.45
2018-02-22T18:54:43.164Z,10.00
2018-02-22T18:57:11.904Z,9.38
2018-02-22T18:59:40.019Z,10.38
2018-02-22T19:02:07.890Z,9.00
2018-02-22T19:04:35.856Z,8.88
2018-02-22T19:07:03.847Z,10.73
2018-02-22T19:09:31.794Z,10.32
2018-02-22T19:12:00.817Z,12.25
2018-02-22T19:14:29.675Z,10.25
2018-02-22T19:16:57.645Z,12.35
2018-02-22T19:19:26.972Z,9.27
2018-02-22T19:21:55.296Z,7.53
2018-02-22T19:24:23.703Z,9.23
2018-02-22T19:26:51.570Z,10.32
2018-02-22T19:29:20.560Z,8.48
2018-02-22T19:31:49.133Z,9.80
2018-02-22T19:34:17.420Z,9.30
2018-02-22T19:36:45.568Z,11.50
2018-02-22T19:39:13.461Z,10.30
2018-02-22T19:41:41.942Z,10.98
2018-02-22T19:44:11.150Z,14.63
2018-02-22T19:46:39.086Z,10.20
2018-02-22T19:49:07.054Z,11.00
2018-02-22T19:51:35.764Z,9.10
2018-02-22T19:54:03.733Z,9.32
2018-02-22T19:56:31.704Z,9.20
2018-02-22T19:59:00.692Z,10.35
2018-02-22T20:01:29.091Z,9.07
2018-02-22T20:03:57.348Z,12.65
2018-02-22T20:06:25.247Z,10.77
2018-02-22T20:08:53.490Z,8.93
2018-02-22T20:11:21.357Z,8.98
2018-02-22T20:13:49.845Z,10.20
2018-02-22T20:16:17.826Z,10.95
2018-02-22T20:18:46.086Z,11.25
2018-02-22T20:21:14.462Z,11.55
2018-02-22T20:23:42.305Z,9.95
2018-02-22T20:26:10.595Z,8.10
2018-02-22T20:28:38.440Z,7.30
2018-02-22T20:31:06.337Z,8.35
2018-02-22T20:33:34.307Z,9.52
2018-02-22T20:36:02.483Z,10.20
2018-02-22T20:38:31.727Z,9.05
2018-02-22T20:40:59.648Z,9.52
2018-02-22T20:43:27.487Z,8.60
2018-02-22T20:45:55.485Z,8.75
2018-02-22T20:48:23.452Z,9.40
2018-02-22T20:50:51.420Z,8.23
2018-02-22T20:53:24.830Z,9.98
2018-02-22T20:55:53.044Z,8.70
2018-02-22T20:58:21.173Z,8.70
2018-02-22T21:00:49.332Z,12.50
2018-02-22T21:03:17.513Z,7.80
2018-02-22T21:05:45.461Z,9.77
2018-02-22T21:08:14.165Z,7.68
2018-02-22T21:10:42.032Z,8.95
2018-02-22T21:13:10.001Z,8.10
2018-02-22T21:15:37.970Z,7.65
2018-02-22T21:18:05.837Z,7.78
2018-02-22T21:20:33.935Z,8.15
2018-02-22T21:23:02.185Z,6.87
2018-02-22T21:25:30.115Z,7.65
2018-02-22T21:27:57.959Z,7.60
2018-02-22T21:30:25.888Z,8.07
2018-02-22T21:32:53.752Z,8.90
2018-02-22T21:35:21.621Z,7.95
2018-02-22T21:37:49.486Z,8.13
2018-02-22T21:40:17.661Z,9.55
2018-02-22T21:42:45.741Z,10.00
2018-02-22T21:45:13.703Z,8.00
2018-02-22T21:47:41.543Z,8.60
2018-02-22T21:50:09.434Z,8.95
2018-02-22T21:52:37.607Z,8.80
2018-02-22T21:55:05.372Z,8.90
2018-02-22T21:57:33.442Z,7.90
2018-02-22T22:00:01.207Z,8.45
2018-02-22T22:02:28.970Z,7.75
2018-02-22T22:04:56.939Z,7.00
2018-02-22T22:07:25.625Z,8.98
2018-02-22T22:09:54.007Z,6.00
2018-02-22T22:12:21.855Z,6.57
2018-02-22T22:14:49.512Z,8.57
2018-02-22T22:17:17.311Z,7.37
2018-02-22T22:19:45.162Z,7.50
2018-02-22T22:22:13.028Z,6.53
2018-02-22T22:24:40.895Z,4.93
2018-02-22T22:27:08.841Z,7.43
2018-02-22T22:29:37.140Z,8.27
2018-02-22T22:32:04.938Z,7.50
2018-02-22T22:34:33.180Z,7.40
2018-02-22T22:37:01.049Z,7.57
2018-02-22T22:39:29.630Z,7.22
2018-02-22T22:41:57.508Z,6.80
2018-02-22T22:44:26.285Z,5.90
2018-02-22T22:46:53.910Z,6.65
2018-02-22T22:49:21.849Z,7.75
2018-02-22T22:51:49.452Z,6.12
2018-02-22T22:54:17.182Z,6.30
2018-02-22T22:56:44.893Z,5.72
2018-02-22T22:59:12.511Z,6.05
2018-02-22T23:01:40.035Z,7.12
2018-02-22T23:04:07.559Z,7.15
2018-02-22T23:06:35.328Z,6.82
2018-02-22T23:09:02.853Z,8.00
2018-02-22T23:11:30.763Z,8.50
2018-02-22T23:13:58.806Z,8.70
2018-02-22T23:16:26.462Z,7.53
2018-02-22T23:18:54.368Z,6.37
2018-02-22T23:21:21.919Z,9.60
2018-02-22T23:23:49.699Z,7.75
2018-02-22T23:26:17.220Z,8.30
2018-02-22T23:28:44.809Z,7.43
2018-02-22T23:31:12.370Z,8.00
2018-02-22T23:33:39.885Z,5.80
2018-02-22T23:36:07.440Z,6.55
2018-02-22T23:38:35.010Z,6.40
2018-02-22T23:44:13.550Z,7.15
2018-02-22T23:46:41.267Z,6.82
2018-02-22T23:49:08.804Z,6.57
2018-02-22T23:51:36.365Z,5.10
2018-02-22T23:54:04.243Z,5.50
2018-02-22T23:56:31.777Z,6.85
2018-02-22T23:58:59.457Z,6.70
